PWSweather.com
Personal Weather Stations
Station Observations
WESTON01
WestonSuperMareGB BS22 8RT

WestonSuperMareGB BS22 8RT

Lat: 51.351508, Lon: -2.933373

Elevation: 15

Station Type: Fine Offset WH1080

http://www.westonweather.co.uk

High Low Average
Temperature 63.0°F17.2°C 44.7°F7.1°C 57.2°F14.0°C
Dew Point 58.4°F14.7°C 40.2°F4.6°C 51.3°F10.7°C
Winds 12.0 mph 19.3 kmh Calm Calm 5.0 mph SE8.0 kmh SE
Wind Gusts 21.1 mph34.0 kmh -- 8.0 mph12.9 kmh
Humidity 92% 63% 81%
Pressure 30.17 in1021.7 mb 29.90 in1012.5 mb -
Precipitation 0.50 in12.7 mm - -
Hour Temp Dew Point Humidity Winds Wind Gusts Pressure Precip Precip Rate Daily Precip Total
12:00 AM 50.8°F10.4°C 41.4°F5.2°C 70% Calm Calm -- 30.14 in1020.7 mb 0.00 in0.0 mm 0.00 in0.0 mm 0.00 in0.0 mm
12:05 AM 50.6°F10.3°C 41.6°F5.3°C 71% 0.1 mph E0.2 kmh E 1.2 mph1.9 kmh 30.14 in1020.7 mb 0.00 in0.0 mm 0.00 in0.0 mm 0.00 in0.0 mm
12:10 AM 50.6°F10.3°C 41.6°F5.3°C 71% 0.2 mph S0.3 kmh S 1.5 mph2.4 kmh 30.14 in1020.7 mb 0.00 in0.0 mm 0.00 in0.0 mm 0.00 in0.0 mm
12:15 AM 50.5°F10.3°C 41.4°F5.2°C 71% 0.2 mph S0.3 kmh S 1.5 mph2.4 kmh 30.14 in1020.7 mb 0.00 in0.0 mm 0.00 in0.0 mm 0.00 in0.0 mm
12:20 AM 50.1°F10.1°C 41.4°F5.2°C 72% Calm Calm -- 30.14 in1020.7 mb 0.00 in0.0 mm 0.00 in0.0 mm 0.00 in0.0 mm
12:25 AM 49.9°F9.9°C 41.2°F5.1°C 72% Calm Calm -- 30.14 in1020.7 mb 0.00 in0.0 mm 0.00 in0.0 mm 0.00 in0.0 mm
12:30 AM 49.7°F9.8°C 41.1°F5.1°C 72% Calm Calm -- 30.14 in1020.7 mb 0.00 in0.0 mm 0.00 in0.0 mm 0.00 in0.0 mm
12:35 AM 49.4°F9.7°C 41.1°F5.1°C 73% Calm Calm -- 30.14 in1020.7 mb 0.00 in0.0 mm 0.00 in0.0 mm 0.00 in0.0 mm
12:40 AM 49.2°F9.6°C 40.9°F4.9°C 73% Calm Calm -- 30.14 in1020.7 mb 0.00 in0.0 mm 0.00 in0.0 mm 0.00 in0.0 mm
12:45 AM 49.0°F9.4°C 40.7°F4.8°C 73% Calm Calm -- 30.14 in1020.7 mb 0.00 in0.0 mm 0.00 in0.0 mm 0.00 in0.0 mm
12:50 AM 48.7°F9.3°C 40.4°F4.7°C 73% Calm Calm -- 30.14 in1020.7 mb 0.00 in0.0 mm 0.00 in0.0 mm 0.00 in0.0 mm
12:55 AM 48.5°F9.2°C 40.6°F4.8°C 74% Calm Calm -- 30.14 in1020.7 mb 0.00 in0.0 mm 0.00 in0.0 mm 0.00 in0.0 mm
01:00 AM 48.3°F9.1°C 40.4°F4.7°C 74% Calm Calm -- 30.14 in1020.7 mb 0.00 in0.0 mm 0.00 in0.0 mm 0.00 in0.0 mm
01:05 AM 48.3°F9.1°C 40.7°F4.8°C 75% Calm Calm -- 30.14 in1020.7 mb 0.00 in0.0 mm 0.00 in0.0 mm 0.00 in0.0 mm
01:10 AM 48.1°F8.9°C 40.6°F4.8°C 75% Calm Calm -- 30.14 in1020.7 mb 0.00 in0.0 mm 0.00 in0.0 mm 0.00 in0.0 mm
01:15 AM 47.9°F8.8°C 40.4°F4.7°C 75% Calm Calm -- 30.14 in1020.7 mb 0.00 in0.0 mm 0.00 in0.0 mm 0.00 in0.0 mm
01:20 AM 47.8°F8.8°C 40.2°F4.6°C 75% Calm Calm -- 30.14 in1020.7 mb 0.00 in0.0 mm 0.00 in0.0 mm 0.00 in0.0 mm
01:25 AM 47.6°F8.7°C 40.4°F4.7°C 76% Calm Calm -- 30.14 in1020.7 mb 0.00 in0.0 mm 0.00 in0.0 mm 0.00 in0.0 mm
01:30 AM 47.6°F8.7°C 40.4°F4.7°C 76% Calm Calm -- 30.14 in1020.7 mb 0.00 in0.0 mm 0.00 in0.0 mm 0.00 in0.0 mm
01:35 AM 47.4°F8.6°C 40.2°F4.6°C 76% Calm Calm -- 30.14 in1020.7 mb 0.00 in0.0 mm 0.00 in0.0 mm 0.00 in0.0 mm
01:40 AM 47.4°F8.6°C 40.5°F4.7°C 77% Calm Calm -- 30.14 in1020.7 mb 0.00 in0.0 mm 0.00 in0.0 mm 0.00 in0.0 mm
01:45 AM 47.2°F8.4°C 40.4°F4.7°C 77% Calm Calm -- 30.14 in1020.7 mb 0.00 in0.0 mm 0.00 in0.0 mm 0.00 in0.0 mm
01:50 AM 47.4°F8.6°C 40.9°F4.9°C 78% Calm Calm -- 30.14 in1020.7 mb 0.00 in0.0 mm 0.00 in0.0 mm 0.00 in0.0 mm
01:55 AM 47.4°F8.6°C 40.9°F4.9°C 78% Calm Calm -- 30.14 in1020.7 mb 0.00 in0.0 mm 0.00 in0.0 mm 0.00 in0.0 mm
02:00 AM 47.2°F8.4°C 40.7°F4.8°C 78% Calm Calm -- 30.14 in1020.7 mb 0.00 in0.0 mm 0.00 in0.0 mm 0.00 in0.0 mm
02:05 AM 47.2°F8.4°C 41.0°F5.0°C 79% Calm Calm -- 30.14 in1020.7 mb 0.00 in0.0 mm 0.00 in0.0 mm 0.00 in0.0 mm
02:10 AM 47.0°F8.3°C 40.9°F4.9°C 79% Calm Calm -- 30.14 in1020.7 mb 0.00 in0.0 mm 0.00 in0.0 mm 0.00 in0.0 mm
02:15 AM 47.0°F8.3°C 40.9°F4.9°C 79% Calm Calm -- 30.14 in1020.7 mb 0.00 in0.0 mm 0.00 in0.0 mm 0.00 in0.0 mm
02:20 AM 46.8°F8.2°C 41.0°F5.0°C 80% Calm Calm -- 30.14 in1020.7 mb 0.00 in0.0 mm 0.00 in0.0 mm 0.00 in0.0 mm
02:25 AM 46.8°F8.2°C 41.0°F5.0°C 80% Calm Calm -- 30.14 in1020.7 mb 0.00 in0.0 mm 0.00 in0.0 mm 0.00 in0.0 mm
02:30 AM 46.8°F8.2°C 41.0°F5.0°C 80% Calm Calm -- 30.14 in1020.7 mb 0.00 in0.0 mm 0.00 in0.0 mm 0.00 in0.0 mm
02:35 AM 46.7°F8.2°C 41.1°F5.1°C 81% Calm Calm -- 30.14 in1020.7 mb 0.00 in0.0 mm 0.00 in0.0 mm 0.00 in0.0 mm
02:40 AM 46.7°F8.2°C 41.1°F5.1°C 81% Calm Calm -- 30.14 in1020.7 mb 0.00 in0.0 mm 0.00 in0.0 mm 0.00 in0.0 mm
02:45 AM 46.5°F8.1°C 41.0°F5.0°C 81% Calm Calm -- 30.14 in1020.7 mb 0.00 in0.0 mm 0.00 in0.0 mm 0.00 in0.0 mm
02:50 AM 46.5°F8.1°C 41.0°F5.0°C 81% Calm Calm -- 30.14 in1020.7 mb 0.00 in0.0 mm 0.00 in0.0 mm 0.00 in0.0 mm
02:55 AM 46.5°F8.1°C 41.3°F5.2°C 82% Calm Calm -- 30.14 in1020.7 mb 0.00 in0.0 mm 0.00 in0.0 mm 0.00 in0.0 mm
03:00 AM 46.3°F7.9°C 41.1°F5.1°C 82% Calm Calm -- 30.14 in1020.7 mb 0.00 in0.0 mm 0.00 in0.0 mm 0.00 in0.0 mm
03:05 AM 46.3°F7.9°C 41.1°F5.1°C 82% Calm Calm -- 30.14 in1020.7 mb 0.00 in0.0 mm 0.00 in0.0 mm 0.00 in0.0 mm
03:10 AM 46.1°F7.8°C 40.9°F4.9°C 82% Calm Calm -- 30.14 in1020.7 mb 0.00 in0.0 mm 0.00 in0.0 mm 0.00 in0.0 mm
03:15 AM 46.1°F7.8°C 40.9°F4.9°C 82% Calm Calm -- 30.14 in1020.7 mb 0.00 in0.0 mm 0.00 in0.0 mm 0.00 in0.0 mm
03:20 AM 46.0°F7.8°C 40.8°F4.9°C 82% Calm Calm -- 30.14 in1020.7 mb 0.00 in0.0 mm 0.00 in0.0 mm 0.00 in0.0 mm
03:25 AM 46.0°F7.8°C 40.8°F4.9°C 82% Calm Calm -- 30.14 in1020.7 mb 0.00 in0.0 mm 0.00 in0.0 mm 0.00 in0.0 mm
03:30 AM 46.0°F7.8°C 41.1°F5.1°C 83% Calm Calm -- 30.14 in1020.7 mb 0.00 in0.0 mm 0.00 in0.0 mm 0.00 in0.0 mm
03:35 AM 45.8°F7.7°C 40.9°F4.9°C 83% Calm Calm -- 30.14 in1020.7 mb 0.00 in0.0 mm 0.00 in0.0 mm 0.00 in0.0 mm
03:40 AM 45.8°F7.7°C 40.9°F4.9°C 83% Calm Calm -- 30.14 in1020.7 mb 0.00 in0.0 mm 0.00 in0.0 mm 0.00 in0.0 mm
03:45 AM 45.6°F7.6°C 40.7°F4.8°C 83% Calm Calm -- 30.14 in1020.7 mb 0.00 in0.0 mm 0.00 in0.0 mm 0.00 in0.0 mm
03:50 AM 45.4°F7.4°C 40.5°F4.7°C 83% Calm Calm -- 30.14 in1020.7 mb 0.00 in0.0 mm 0.00 in0.0 mm 0.00 in0.0 mm
03:55 AM 45.2°F7.3°C 40.4°F4.7°C 83% Calm Calm -- 30.14 in1020.7 mb 0.00 in0.0 mm 0.00 in0.0 mm 0.00 in0.0 mm
04:00 AM 45.2°F7.3°C 40.4°F4.7°C 83% Calm Calm -- 30.14 in1020.7 mb 0.00 in0.0 mm 0.00 in0.0 mm 0.00 in0.0 mm
04:05 AM 45.2°F7.3°C 40.4°F4.7°C 83% Calm Calm -- 30.14 in1020.7 mb 0.00 in0.0 mm 0.00 in0.0 mm 0.00 in0.0 mm
04:10 AM 45.0°F7.2°C 40.5°F4.7°C 84% Calm Calm -- 30.14 in1020.7 mb 0.00 in0.0 mm 0.00 in0.0 mm 0.00 in0.0 mm
04:15 AM 45.0°F7.2°C 40.5°F4.7°C 84% Calm Calm -- 30.14 in1020.7 mb 0.00 in0.0 mm 0.00 in0.0 mm 0.00 in0.0 mm
04:20 AM 45.0°F7.2°C 40.5°F4.7°C 84% Calm Calm -- 30.14 in1020.7 mb 0.00 in0.0 mm 0.00 in0.0 mm 0.00 in0.0 mm
04:25 AM 45.0°F7.2°C 40.5°F4.7°C 84% Calm Calm -- 30.14 in1020.7 mb 0.00 in0.0 mm 0.00 in0.0 mm 0.00 in0.0 mm
04:35 AM 45.0°F7.2°C 40.8°F4.9°C 85% Calm Calm -- 30.14 in1020.7 mb 0.00 in0.0 mm 0.00 in0.0 mm 0.00 in0.0 mm
04:40 AM 45.0°F7.2°C 40.8°F4.9°C 85% Calm Calm -- 30.14 in1020.7 mb 0.00 in0.0 mm 0.00 in0.0 mm 0.00 in0.0 mm
04:45 AM 44.9°F7.2°C 40.6°F4.8°C 85% Calm Calm -- 30.14 in1020.7 mb 0.00 in0.0 mm 0.00 in0.0 mm 0.00 in0.0 mm
04:50 AM 44.9°F7.2°C 40.6°F4.8°C 85% Calm Calm -- 30.14 in1020.7 mb 0.00 in0.0 mm 0.00 in0.0 mm 0.00 in0.0 mm
04:55 AM 44.9°F7.2°C 40.6°F4.8°C 85% Calm Calm -- 30.14 in1020.7 mb 0.00 in0.0 mm 0.00 in0.0 mm 0.00 in0.0 mm
05:00 AM 44.9°F7.2°C 40.6°F4.8°C 85% Calm Calm -- 30.14 in1020.7 mb 0.00 in0.0 mm 0.00 in0.0 mm 0.00 in0.0 mm
05:05 AM 44.9°F7.2°C 40.6°F4.8°C 85% Calm Calm -- 30.14 in1020.7 mb 0.00 in0.0 mm 0.00 in0.0 mm 0.00 in0.0 mm
05:10 AM 44.7°F7.1°C 40.8°F4.9°C 86% Calm Calm -- 30.14 in1020.7 mb 0.00 in0.0 mm 0.00 in0.0 mm 0.00 in0.0 mm
05:15 AM 44.7°F7.1°C 40.8°F4.9°C 86% Calm Calm -- 30.14 in1020.7 mb 0.00 in0.0 mm 0.00 in0.0 mm 0.00 in0.0 mm
05:20 AM 44.9°F7.2°C 40.9°F4.9°C 86% Calm Calm -- 30.14 in1020.7 mb 0.00 in0.0 mm 0.00 in0.0 mm 0.00 in0.0 mm
05:25 AM 44.9°F7.2°C 40.9°F4.9°C 86% Calm Calm -- 30.14 in1020.7 mb 0.00 in0.0 mm 0.00 in0.0 mm 0.00 in0.0 mm
05:30 AM 45.0°F7.2°C 41.1°F5.1°C 86% Calm Calm -- 30.14 in1020.7 mb 0.00 in0.0 mm 0.00 in0.0 mm 0.00 in0.0 mm
05:35 AM 45.2°F7.3°C 41.3°F5.2°C 86% Calm Calm -- 30.14 in1020.7 mb 0.00 in0.0 mm 0.00 in0.0 mm 0.00 in0.0 mm
05:40 AM 45.6°F7.6°C 41.6°F5.3°C 86% Calm Calm -- 30.14 in1020.7 mb 0.00 in0.0 mm 0.00 in0.0 mm 0.00 in0.0 mm
05:45 AM 46.1°F7.8°C 42.5°F5.8°C 87% Calm Calm -- 30.14 in1020.7 mb 0.00 in0.0 mm 0.00 in0.0 mm 0.00 in0.0 mm
05:50 AM 46.8°F8.2°C 43.5°F6.4°C 88% Calm Calm -- 30.14 in1020.7 mb 0.00 in0.0 mm 0.00 in0.0 mm 0.00 in0.0 mm
05:55 AM 47.8°F8.8°C 44.4°F6.9°C 88% Calm Calm -- 30.14 in1020.7 mb 0.00 in0.0 mm 0.00 in0.0 mm 0.00 in0.0 mm
06:00 AM 48.8°F9.3°C 45.7°F7.6°C 89% 0.3 mph E0.5 kmh E 1.8 mph2.9 kmh 30.14 in1020.7 mb 0.00 in0.0 mm 0.00 in0.0 mm 0.00 in0.0 mm
06:05 AM 49.7°F9.8°C 46.9°F8.3°C 90% 0.3 mph E0.5 kmh E 1.8 mph2.9 kmh 30.14 in1020.7 mb 0.00 in0.0 mm 0.00 in0.0 mm 0.00 in0.0 mm
06:10 AM 50.5°F10.3°C 47.6°F8.7°C 90% Calm Calm -- 30.14 in1020.7 mb 0.00 in0.0 mm 0.00 in0.0 mm 0.00 in0.0 mm
06:15 AM 51.5°F10.8°C 48.7°F9.3°C 90% 0.1 mph E0.2 kmh E 1.2 mph1.9 kmh 30.14 in1020.7 mb 0.00 in0.0 mm 0.00 in0.0 mm 0.00 in0.0 mm
06:20 AM 52.1°F11.2°C 49.2°F9.6°C 90% 0.1 mph E0.2 kmh E 1.2 mph1.9 kmh 30.14 in1020.7 mb 0.00 in0.0 mm 0.00 in0.0 mm 0.00 in0.0 mm
06:25 AM 53.2°F11.8°C 50.0°F10.0°C 89% Calm Calm -- 30.14 in1020.7 mb 0.00 in0.0 mm 0.00 in0.0 mm 0.00 in0.0 mm
06:30 AM 54.2°F12.3°C 50.8°F10.4°C 88% Calm Calm -- 30.14 in1020.7 mb 0.00 in0.0 mm 0.00 in0.0 mm 0.00 in0.0 mm
06:35 AM 55.0°F12.8°C 51.5°F10.8°C 88% Calm Calm -- 30.14 in1020.7 mb 0.00 in0.0 mm 0.00 in0.0 mm 0.00 in0.0 mm
06:40 AM 55.7°F13.2°C 51.5°F10.8°C 86% Calm Calm -- 30.14 in1020.7 mb 0.00 in0.0 mm 0.00 in0.0 mm 0.00 in0.0 mm
06:45 AM 56.0°F13.3°C 51.6°F10.9°C 85% 0.2 mph SE0.3 kmh SE 2.7 mph4.3 kmh 30.14 in1020.7 mb 0.00 in0.0 mm 0.00 in0.0 mm 0.00 in0.0 mm
06:50 AM 57.1°F13.9°C 52.0°F11.1°C 83% 0.2 mph SE0.3 kmh SE 2.7 mph4.3 kmh 30.14 in1020.7 mb 0.00 in0.0 mm 0.00 in0.0 mm 0.00 in0.0 mm
06:55 AM 58.0°F14.4°C 52.5°F11.4°C 82% 0.3 mph S0.5 kmh S 1.8 mph2.9 kmh 30.14 in1020.7 mb 0.00 in0.0 mm 0.00 in0.0 mm 0.00 in0.0 mm
07:00 AM 58.7°F14.8°C 52.6°F11.4°C 80% 1.7 mph SE2.7 kmh SE 5.1 mph8.2 kmh 30.14 in1020.7 mb 0.00 in0.0 mm 0.00 in0.0 mm 0.00 in0.0 mm
07:05 AM 59.1°F15.1°C 52.6°F11.4°C 79% 2.2 mph SE3.5 kmh SE 5.1 mph8.2 kmh 30.14 in1020.7 mb 0.00 in0.0 mm 0.00 in0.0 mm 0.00 in0.0 mm
07:10 AM 59.5°F15.3°C 52.2°F11.2°C 77% 2.2 mph SSE3.5 kmh SSE 4.8 mph7.7 kmh 30.14 in1020.7 mb 0.00 in0.0 mm 0.00 in0.0 mm 0.00 in0.0 mm
07:15 AM 59.5°F15.3°C 51.5°F10.8°C 75% 2.8 mph S4.5 kmh S 5.4 mph8.7 kmh 30.14 in1020.7 mb 0.00 in0.0 mm 0.00 in0.0 mm 0.00 in0.0 mm
07:20 AM 59.5°F15.3°C 50.8°F10.4°C 73% 3.2 mph S5.1 kmh S 5.4 mph8.7 kmh 30.14 in1020.7 mb 0.00 in0.0 mm 0.00 in0.0 mm 0.00 in0.0 mm
07:25 AM 59.5°F15.3°C 50.8°F10.4°C 73% 3.4 mph S5.5 kmh S 6.2 mph10.0 kmh 30.14 in1020.7 mb 0.00 in0.0 mm 0.00 in0.0 mm 0.00 in0.0 mm
07:30 AM 59.3°F15.2°C 50.2°F10.1°C 72% 3.9 mph SSW6.3 kmh SSW 6.2 mph10.0 kmh 30.14 in1020.7 mb 0.00 in0.0 mm 0.00 in0.0 mm 0.00 in0.0 mm
07:35 AM 59.3°F15.2°C 50.2°F10.1°C 72% 5.1 mph SSW8.2 kmh SSW 7.4 mph11.9 kmh 30.14 in1020.7 mb 0.00 in0.0 mm 0.00 in0.0 mm 0.00 in0.0 mm
07:40 AM 59.1°F15.1°C 49.7°F9.8°C 71% 5.2 mph SSW8.4 kmh SSW 7.4 mph11.9 kmh 30.14 in1020.7 mb 0.00 in0.0 mm 0.00 in0.0 mm 0.00 in0.0 mm
07:45 AM 59.1°F15.1°C 49.7°F9.8°C 71% 4.9 mph S7.9 kmh S 6.2 mph10.0 kmh 30.14 in1020.7 mb 0.00 in0.0 mm 0.00 in0.0 mm 0.00 in0.0 mm
07:50 AM 58.9°F14.9°C 49.1°F9.5°C 70% 4.1 mph S6.6 kmh S 5.4 mph8.7 kmh 30.17 in1021.7 mb 0.00 in0.0 mm 0.00 in0.0 mm 0.00 in0.0 mm
07:55 AM 58.7°F14.8°C 49.0°F9.4°C 70% 3.3 mph S5.3 kmh S 4.5 mph7.2 kmh 30.17 in1021.7 mb 0.00 in0.0 mm 0.00 in0.0 mm 0.00 in0.0 mm
08:00 AM 58.7°F14.8°C 49.0°F9.4°C 70% 2.8 mph SSE4.5 kmh SSE 4.2 mph6.8 kmh 30.17 in1021.7 mb 0.00 in0.0 mm 0.00 in0.0 mm 0.00 in0.0 mm
08:05 AM 58.7°F14.8°C 48.6°F9.2°C 69% 2.6 mph SE4.2 kmh SE 4.5 mph7.2 kmh 30.14 in1020.7 mb 0.00 in0.0 mm 0.00 in0.0 mm 0.00 in0.0 mm
08:10 AM 58.9°F14.9°C 48.8°F9.3°C 69% 2.6 mph S4.2 kmh S 4.5 mph7.2 kmh 30.14 in1020.7 mb 0.00 in0.0 mm 0.00 in0.0 mm 0.00 in0.0 mm
08:15 AM 58.9°F14.9°C 48.8°F9.3°C 69% 2.9 mph S4.7 kmh S 5.4 mph8.7 kmh 30.14 in1020.7 mb 0.00 in0.0 mm 0.00 in0.0 mm 0.00 in0.0 mm
08:20 AM 58.9°F14.9°C 48.8°F9.3°C 69% 3.4 mph S5.5 kmh S 5.4 mph8.7 kmh 30.14 in1020.7 mb 0.00 in0.0 mm 0.00 in0.0 mm 0.00 in0.0 mm
08:25 AM 59.3°F15.2°C 49.1°F9.5°C 69% 3.7 mph SE6.0 kmh SE 7.1 mph11.4 kmh 30.14 in1020.7 mb 0.00 in0.0 mm 0.00 in0.0 mm 0.00 in0.0 mm
08:30 AM 59.3°F15.2°C 49.1°F9.5°C 69% 5.1 mph S8.2 kmh S 8.6 mph13.8 kmh 30.14 in1020.7 mb 0.00 in0.0 mm 0.00 in0.0 mm 0.00 in0.0 mm
08:35 AM 59.5°F15.3°C 48.9°F9.4°C 68% 5.7 mph SSW9.2 kmh SSW 8.6 mph13.8 kmh 30.14 in1020.7 mb 0.00 in0.0 mm 0.00 in0.0 mm 0.00 in0.0 mm
08:40 AM 59.8°F15.4°C 49.2°F9.6°C 68% 5.8 mph S9.3 kmh S 10.1 mph16.3 kmh 30.14 in1020.7 mb 0.00 in0.0 mm 0.00 in0.0 mm 0.00 in0.0 mm
08:45 AM 59.8°F15.4°C 48.8°F9.3°C 67% 5.6 mph S9.0 kmh S 10.7 mph17.2 kmh 30.14 in1020.7 mb 0.00 in0.0 mm 0.00 in0.0 mm 0.00 in0.0 mm
08:50 AM 59.8°F15.4°C 48.8°F9.3°C 67% 7.3 mph S11.7 kmh S 10.7 mph17.2 kmh 30.14 in1020.7 mb 0.00 in0.0 mm 0.00 in0.0 mm 0.00 in0.0 mm
08:55 AM 59.6°F15.3°C 48.3°F9.1°C 66% 5.7 mph S9.2 kmh S 10.1 mph16.3 kmh 30.14 in1020.7 mb 0.00 in0.0 mm 0.00 in0.0 mm 0.00 in0.0 mm
09:00 AM 59.8°F15.4°C 48.4°F9.1°C 66% 3.8 mph S6.1 kmh S 10.1 mph16.3 kmh 30.14 in1020.7 mb 0.00 in0.0 mm 0.00 in0.0 mm 0.00 in0.0 mm
09:05 AM 59.6°F15.3°C 47.8°F8.8°C 65% 4.1 mph S6.6 kmh S 7.7 mph12.4 kmh 30.14 in1020.7 mb 0.00 in0.0 mm 0.00 in0.0 mm 0.00 in0.0 mm
09:10 AM 59.6°F15.3°C 48.3°F9.1°C 66% 6.4 mph SSW10.3 kmh SSW 8.6 mph13.8 kmh 30.14 in1020.7 mb 0.00 in0.0 mm 0.00 in0.0 mm 0.00 in0.0 mm
09:15 AM 59.6°F15.3°C 47.8°F8.8°C 65% 6.7 mph S10.8 kmh S 8.6 mph13.8 kmh 30.14 in1020.7 mb 0.00 in0.0 mm 0.00 in0.0 mm 0.00 in0.0 mm
09:20 AM 59.6°F15.3°C 47.8°F8.8°C 65% 5.4 mph S8.7 kmh S 8.0 mph12.9 kmh 30.14 in1020.7 mb 0.00 in0.0 mm 0.00 in0.0 mm 0.00 in0.0 mm
09:25 AM 59.8°F15.4°C 48.0°F8.9°C 65% 4.4 mph SSE7.1 kmh SSE 5.7 mph9.2 kmh 30.14 in1020.7 mb 0.00 in0.0 mm 0.00 in0.0 mm 0.00 in0.0 mm
09:30 AM 60.2°F15.7°C 48.4°F9.1°C 65% 4.1 mph SSE6.6 kmh SSE 6.5 mph10.5 kmh 30.14 in1020.7 mb 0.00 in0.0 mm 0.00 in0.0 mm 0.00 in0.0 mm
09:35 AM 60.3°F15.7°C 48.1°F8.9°C 64% 6.0 mph S9.7 kmh S 12.8 mph20.6 kmh 30.14 in1020.7 mb 0.00 in0.0 mm 0.00 in0.0 mm 0.00 in0.0 mm
09:40 AM 60.7°F15.9°C 48.5°F9.2°C 64% 6.8 mph S10.9 kmh S 12.8 mph20.6 kmh 30.14 in1020.7 mb 0.00 in0.0 mm 0.00 in0.0 mm 0.00 in0.0 mm
09:45 AM 61.1°F16.2°C 48.8°F9.3°C 64% 6.2 mph SSW10.0 kmh SSW 8.6 mph13.8 kmh 30.14 in1020.7 mb 0.00 in0.0 mm 0.00 in0.0 mm 0.00 in0.0 mm
09:50 AM 61.4°F16.3°C 49.1°F9.5°C 64% 6.6 mph SSW10.6 kmh SSW 14.6 mph23.5 kmh 30.14 in1020.7 mb 0.00 in0.0 mm 0.00 in0.0 mm 0.00 in0.0 mm
09:55 AM 61.4°F16.3°C 48.7°F9.3°C 63% 7.9 mph SSW12.7 kmh SSW 14.6 mph23.5 kmh 30.14 in1020.7 mb 0.00 in0.0 mm 0.00 in0.0 mm 0.00 in0.0 mm
10:00 AM 61.4°F16.3°C 48.7°F9.3°C 63% 8.4 mph S13.5 kmh S 13.1 mph21.1 kmh 30.14 in1020.7 mb 0.00 in0.0 mm 0.00 in0.0 mm 0.00 in0.0 mm
10:05 AM 61.4°F16.3°C 49.1°F9.5°C 64% 7.7 mph S12.4 kmh S 10.1 mph16.3 kmh 30.14 in1020.7 mb 0.00 in0.0 mm 0.00 in0.0 mm 0.00 in0.0 mm
10:10 AM 61.1°F16.2°C 48.8°F9.3°C 64% 8.6 mph S13.8 kmh S 11.6 mph18.7 kmh 30.14 in1020.7 mb 0.00 in0.0 mm 0.00 in0.0 mm 0.00 in0.0 mm
10:15 AM 61.1°F16.2°C 48.8°F9.3°C 64% 8.7 mph S14.0 kmh S 11.6 mph18.7 kmh 30.14 in1020.7 mb 0.00 in0.0 mm 0.00 in0.0 mm 0.00 in0.0 mm
10:20 AM 60.9°F16.1°C 49.0°F9.4°C 65% 8.4 mph SSW13.5 kmh SSW 11.3 mph18.2 kmh 30.14 in1020.7 mb 0.00 in0.0 mm 0.00 in0.0 mm 0.00 in0.0 mm
10:25 AM 60.9°F16.1°C 49.5°F9.7°C 66% 6.5 mph SSW10.5 kmh SSW 11.3 mph18.2 kmh 30.14 in1020.7 mb 0.00 in0.0 mm 0.00 in0.0 mm 0.00 in0.0 mm
10:30 AM 60.7°F15.9°C 49.3°F9.6°C 66% 6.0 mph S9.7 kmh S 11.6 mph18.7 kmh 30.14 in1020.7 mb 0.00 in0.0 mm 0.00 in0.0 mm 0.00 in0.0 mm
10:35 AM 60.5°F15.8°C 49.5°F9.7°C 67% 7.3 mph S11.7 kmh S 11.6 mph18.7 kmh 30.14 in1020.7 mb 0.00 in0.0 mm 0.00 in0.0 mm 0.00 in0.0 mm
10:40 AM 60.7°F15.9°C 50.1°F10.1°C 68% 7.1 mph S11.4 kmh S 9.8 mph15.8 kmh 30.14 in1020.7 mb 0.00 in0.0 mm 0.00 in0.0 mm 0.00 in0.0 mm
10:45 AM 60.7°F15.9°C 50.5°F10.3°C 69% 6.7 mph SSW10.8 kmh SSW 10.1 mph16.3 kmh 30.14 in1020.7 mb 0.00 in0.0 mm 0.00 in0.0 mm 0.00 in0.0 mm
10:50 AM 60.5°F15.8°C 50.3°F10.2°C 69% 8.0 mph S12.9 kmh S 11.3 mph18.2 kmh 30.14 in1020.7 mb 0.00 in0.0 mm 0.00 in0.0 mm 0.00 in0.0 mm
10:55 AM 60.5°F15.8°C 50.7°F10.4°C 70% 7.8 mph S12.6 kmh S 11.3 mph18.2 kmh 30.14 in1020.7 mb 0.00 in0.0 mm 0.00 in0.0 mm 0.00 in0.0 mm
11:00 AM 60.5°F15.8°C 51.1°F10.6°C 71% 6.5 mph SSW10.5 kmh SSW 10.7 mph17.2 kmh 30.14 in1020.7 mb 0.00 in0.0 mm 0.00 in0.0 mm 0.00 in0.0 mm
11:05 AM 60.7°F15.9°C 51.2°F10.7°C 71% 6.6 mph S10.6 kmh S 9.8 mph15.8 kmh 30.14 in1020.7 mb 0.00 in0.0 mm 0.00 in0.0 mm 0.00 in0.0 mm
11:10 AM 60.5°F15.8°C 51.5°F10.8°C 72% 6.7 mph S10.8 kmh S 9.8 mph15.8 kmh 30.14 in1020.7 mb 0.00 in0.0 mm 0.00 in0.0 mm 0.00 in0.0 mm
11:15 AM 60.5°F15.8°C 51.5°F10.8°C 72% 6.3 mph S10.1 kmh S 8.3 mph13.4 kmh 30.14 in1020.7 mb 0.00 in0.0 mm 0.00 in0.0 mm 0.00 in0.0 mm
11:20 AM 60.7°F15.9°C 52.0°F11.1°C 73% 6.1 mph S9.8 kmh S 8.3 mph13.4 kmh 30.14 in1020.7 mb 0.00 in0.0 mm 0.00 in0.0 mm 0.00 in0.0 mm
11:25 AM 60.5°F15.8°C 51.8°F11.0°C 73% 7.0 mph S11.3 kmh S 10.7 mph17.2 kmh 30.14 in1020.7 mb 0.00 in0.0 mm 0.00 in0.0 mm 0.00 in0.0 mm
11:30 AM 60.5°F15.8°C 52.2°F11.2°C 74% 6.9 mph S11.1 kmh S 10.7 mph17.2 kmh 30.14 in1020.7 mb 0.00 in0.0 mm 0.00 in0.0 mm 0.00 in0.0 mm
11:35 AM 60.7°F15.9°C 52.7°F11.5°C 75% 4.5 mph S7.2 kmh S 10.1 mph16.3 kmh 30.14 in1020.7 mb 0.00 in0.0 mm 0.00 in0.0 mm 0.00 in0.0 mm
11:40 AM 60.9°F16.1°C 52.9°F11.6°C 75% 4.6 mph SE7.4 kmh SE 8.0 mph12.9 kmh 30.14 in1020.7 mb 0.00 in0.0 mm 0.00 in0.0 mm 0.00 in0.0 mm
11:45 AM 61.3°F16.3°C 53.3°F11.8°C 75% 5.1 mph SE8.2 kmh SE 8.0 mph12.9 kmh 30.14 in1020.7 mb 0.00 in0.0 mm 0.00 in0.0 mm 0.00 in0.0 mm
11:50 AM 61.8°F16.6°C 53.8°F12.1°C 75% 4.6 mph SE7.4 kmh SE 8.0 mph12.9 kmh 30.11 in1019.6 mb 0.00 in0.0 mm 0.00 in0.0 mm 0.00 in0.0 mm
11:55 AM 62.0°F16.7°C 54.0°F12.2°C 75% 4.6 mph SE7.4 kmh SE 7.7 mph12.4 kmh 30.11 in1019.6 mb 0.00 in0.0 mm 0.00 in0.0 mm 0.00 in0.0 mm
12:00 PM 62.3°F16.8°C 54.3°F12.4°C 75% 6.1 mph S9.8 kmh S 9.8 mph15.8 kmh 30.11 in1019.6 mb 0.00 in0.0 mm 0.00 in0.0 mm 0.00 in0.0 mm
12:05 PM 62.3°F16.8°C 53.9°F12.2°C 74% 8.2 mph SSW13.2 kmh SSW 10.4 mph16.7 kmh 30.11 in1019.6 mb 0.00 in0.0 mm 0.00 in0.0 mm 0.00 in0.0 mm
12:10 PM 62.3°F16.8°C 54.3°F12.4°C 75% 7.5 mph S12.1 kmh S 10.4 mph16.7 kmh 30.11 in1019.6 mb 0.00 in0.0 mm 0.00 in0.0 mm 0.00 in0.0 mm
12:15 PM 62.3°F16.8°C 54.3°F12.4°C 75% 7.0 mph S11.3 kmh S 10.1 mph16.3 kmh 30.11 in1019.6 mb 0.00 in0.0 mm 0.00 in0.0 mm 0.00 in0.0 mm
12:20 PM 62.3°F16.8°C 54.7°F12.6°C 76% 5.8 mph S9.3 kmh S 10.1 mph16.3 kmh 30.11 in1019.6 mb 0.00 in0.0 mm 0.00 in0.0 mm 0.00 in0.0 mm
12:25 PM 62.3°F16.8°C 54.7°F12.6°C 76% 4.1 mph S6.6 kmh S 7.7 mph12.4 kmh 30.11 in1019.6 mb 0.00 in0.0 mm 0.00 in0.0 mm 0.00 in0.0 mm
12:30 PM 62.3°F16.8°C 54.7°F12.6°C 76% 5.1 mph SE8.2 kmh SE 8.6 mph13.8 kmh 30.11 in1019.6 mb 0.00 in0.0 mm 0.00 in0.0 mm 0.00 in0.0 mm
12:35 PM 62.3°F16.8°C 54.7°F12.6°C 76% 7.4 mph SSE11.9 kmh SSE 13.1 mph21.1 kmh 30.11 in1019.6 mb 0.00 in0.0 mm 0.00 in0.0 mm 0.00 in0.0 mm
12:40 PM 62.5°F16.9°C 54.8°F12.7°C 76% 8.1 mph S13.0 kmh S 13.1 mph21.1 kmh 30.11 in1019.6 mb 0.00 in0.0 mm 0.00 in0.0 mm 0.00 in0.0 mm
12:45 PM 62.7°F17.1°C 55.4°F13.0°C 77% 7.4 mph S11.9 kmh S 12.5 mph20.1 kmh 30.11 in1019.6 mb 0.00 in0.0 mm 0.00 in0.0 mm 0.00 in0.0 mm
12:50 PM 62.7°F17.1°C 55.4°F13.0°C 77% 8.0 mph S12.9 kmh S 12.5 mph20.1 kmh 30.11 in1019.6 mb 0.00 in0.0 mm 0.00 in0.0 mm 0.00 in0.0 mm
12:55 PM 62.9°F17.2°C 55.5°F13.1°C 77% 9.3 mph S15.0 kmh S 14.0 mph22.5 kmh 30.11 in1019.6 mb 0.00 in0.0 mm 0.00 in0.0 mm 0.00 in0.0 mm
01:00 PM 62.7°F17.1°C 55.4°F13.0°C 77% 7.7 mph S12.4 kmh S 14.0 mph22.5 kmh 30.11 in1019.6 mb 0.00 in0.0 mm 0.00 in0.0 mm 0.00 in0.0 mm
01:05 PM 62.7°F17.1°C 55.4°F13.0°C 77% 5.9 mph S9.5 kmh S 10.4 mph16.7 kmh 30.08 in1018.6 mb 0.00 in0.0 mm 0.00 in0.0 mm 0.00 in0.0 mm
01:10 PM 62.7°F17.1°C 55.7°F13.2°C 78% 7.4 mph S11.9 kmh S 10.4 mph16.7 kmh 30.08 in1018.6 mb 0.00 in0.0 mm 0.00 in0.0 mm 0.00 in0.0 mm
01:15 PM 62.9°F17.2°C 55.9°F13.3°C 78% 7.6 mph S12.2 kmh S 10.4 mph16.7 kmh 30.08 in1018.6 mb 0.00 in0.0 mm 0.00 in0.0 mm 0.00 in0.0 mm
01:20 PM 62.9°F17.2°C 55.9°F13.3°C 78% 8.4 mph S13.5 kmh S 13.1 mph21.1 kmh 30.08 in1018.6 mb 0.00 in0.0 mm 0.00 in0.0 mm 0.00 in0.0 mm
01:25 PM 63.0°F17.2°C 56.1°F13.4°C 78% 8.0 mph S12.9 kmh S 13.1 mph21.1 kmh 30.08 in1018.6 mb 0.00 in0.0 mm 0.00 in0.0 mm 0.00 in0.0 mm
01:30 PM 62.9°F17.2°C 55.9°F13.3°C 78% 7.3 mph SSW11.7 kmh SSW 14.3 mph23.0 kmh 30.08 in1018.6 mb 0.00 in0.0 mm 0.00 in0.0 mm 0.00 in0.0 mm
01:35 PM 62.9°F17.2°C 56.3°F13.5°C 79% 9.4 mph SSW15.1 kmh SSW 14.3 mph23.0 kmh 30.08 in1018.6 mb 0.00 in0.0 mm 0.00 in0.0 mm 0.00 in0.0 mm
01:40 PM 62.9°F17.2°C 56.3°F13.5°C 79% 7.9 mph S12.7 kmh S 13.1 mph21.1 kmh 30.08 in1018.6 mb 0.00 in0.0 mm 0.00 in0.0 mm 0.00 in0.0 mm
01:45 PM 62.9°F17.2°C 56.6°F13.7°C 80% 7.4 mph S11.9 kmh S 13.1 mph21.1 kmh 30.08 in1018.6 mb 0.00 in0.0 mm 0.00 in0.0 mm 0.00 in0.0 mm
01:50 PM 63.0°F17.2°C 56.8°F13.8°C 80% 6.4 mph SSW10.3 kmh SSW 8.3 mph13.4 kmh 30.08 in1018.6 mb 0.00 in0.0 mm 0.00 in0.0 mm 0.00 in0.0 mm
01:55 PM 63.0°F17.2°C 57.1°F13.9°C 81% 5.9 mph S9.5 kmh S 8.6 mph13.8 kmh 30.08 in1018.6 mb 0.00 in0.0 mm 0.00 in0.0 mm 0.00 in0.0 mm
02:00 PM 63.0°F17.2°C 57.1°F13.9°C 81% 7.2 mph S11.6 kmh S 10.1 mph16.3 kmh 30.08 in1018.6 mb 0.00 in0.0 mm 0.00 in0.0 mm 0.00 in0.0 mm
02:05 PM 63.0°F17.2°C 57.5°F14.2°C 82% 7.7 mph S12.4 kmh S 10.1 mph16.3 kmh 30.08 in1018.6 mb 0.00 in0.0 mm 0.00 in0.0 mm 0.00 in0.0 mm
02:10 PM 62.7°F17.1°C 57.1°F13.9°C 82% 9.3 mph S15.0 kmh S 13.7 mph22.0 kmh 30.08 in1018.6 mb 0.00 in0.0 mm 0.00 in0.0 mm 0.00 in0.0 mm
02:15 PM 62.7°F17.1°C 57.1°F13.9°C 82% 9.7 mph S15.6 kmh S 13.7 mph22.0 kmh 30.08 in1018.6 mb 0.00 in0.0 mm 0.00 in0.0 mm 0.00 in0.0 mm
02:20 PM 62.5°F16.9°C 56.9°F13.8°C 82% 8.2 mph S13.2 kmh S 11.6 mph18.7 kmh 30.08 in1018.6 mb 0.00 in0.0 mm 0.00 in0.0 mm 0.00 in0.0 mm
02:25 PM 62.5°F16.9°C 57.3°F14.1°C 83% 7.9 mph SSW12.7 kmh SSW 12.8 mph20.6 kmh 30.08 in1018.6 mb 0.00 in0.0 mm 0.00 in0.0 mm 0.00 in0.0 mm
02:30 PM 62.5°F16.9°C 57.3°F14.1°C 83% 9.3 mph SSW15.0 kmh SSW 19.3 mph31.1 kmh 30.08 in1018.6 mb 0.05 in1.3 mm 0.60 in15.2 mm 0.05 in1.3 mm
02:35 PM 62.3°F16.8°C 57.4°F14.1°C 84% 9.2 mph S14.8 kmh S 19.3 mph31.1 kmh 30.05 in1017.6 mb 0.05 in1.3 mm 0.00 in0.0 mm 0.05 in1.3 mm
02:40 PM 62.2°F16.8°C 57.3°F14.1°C 84% 10.7 mph S17.2 kmh S 17.3 mph27.8 kmh 30.05 in1017.6 mb 0.05 in1.3 mm 0.00 in0.0 mm 0.05 in1.3 mm
02:45 PM 62.0°F16.7°C 57.4°F14.1°C 85% 11.6 mph S18.7 kmh S 17.3 mph27.8 kmh 30.05 in1017.6 mb 0.05 in1.3 mm 0.00 in0.0 mm 0.05 in1.3 mm
02:50 PM 62.0°F16.7°C 57.4°F14.1°C 85% 9.1 mph S14.6 kmh S 13.4 mph21.6 kmh 30.05 in1017.6 mb 0.05 in1.3 mm 0.00 in0.0 mm 0.05 in1.3 mm
02:55 PM 61.8°F16.6°C 57.2°F14.0°C 85% 10.0 mph S16.1 kmh S 16.4 mph26.4 kmh 30.05 in1017.6 mb 0.05 in1.3 mm 0.00 in0.0 mm 0.05 in1.3 mm
03:00 PM 61.8°F16.6°C 57.2°F14.0°C 85% 10.0 mph S16.1 kmh S 16.4 mph26.4 kmh 30.05 in1017.6 mb 0.08 in2.0 mm 0.03 in0.8 mm 0.08 in2.0 mm
03:05 PM 61.6°F16.4°C 57.1°F13.9°C 85% 9.3 mph SSW15.0 kmh SSW 14.0 mph22.5 kmh 30.05 in1017.6 mb 0.08 in2.0 mm 0.00 in0.0 mm 0.08 in2.0 mm
03:10 PM 61.6°F16.4°C 57.4°F14.1°C 86% 9.4 mph S15.1 kmh S 13.7 mph22.0 kmh 30.05 in1017.6 mb 0.08 in2.0 mm 0.00 in0.0 mm 0.08 in2.0 mm
03:15 PM 61.6°F16.4°C 57.4°F14.1°C 86% 9.4 mph S15.1 kmh S 14.3 mph23.0 kmh 30.05 in1017.6 mb 0.08 in2.0 mm 0.00 in0.0 mm 0.08 in2.0 mm
03:20 PM 61.6°F16.4°C 57.4°F14.1°C 86% 10.5 mph S16.9 kmh S 17.0 mph27.4 kmh 30.05 in1017.6 mb 0.08 in2.0 mm 0.00 in0.0 mm 0.08 in2.0 mm
03:25 PM 61.6°F16.4°C 57.4°F14.1°C 86% 12.0 mph S19.3 kmh S 21.1 mph34.0 kmh 30.05 in1017.6 mb 0.08 in2.0 mm 0.00 in0.0 mm 0.08 in2.0 mm
03:30 PM 61.4°F16.3°C 57.5°F14.2°C 87% 11.9 mph S19.2 kmh S 21.1 mph34.0 kmh 30.05 in1017.6 mb 0.03 in0.8 mm 0.00 in0.0 mm 0.08 in2.0 mm
03:35 PM 61.4°F16.3°C 57.5°F14.2°C 87% 10.1 mph S16.3 kmh S 21.1 mph34.0 kmh 30.02 in1016.6 mb 0.03 in0.8 mm 0.00 in0.0 mm 0.08 in2.0 mm
03:40 PM 61.4°F16.3°C 57.5°F14.2°C 87% 9.4 mph S15.1 kmh S 17.6 mph28.3 kmh 30.02 in1016.6 mb 0.03 in0.8 mm 0.00 in0.0 mm 0.08 in2.0 mm
03:45 PM 61.4°F16.3°C 57.5°F14.2°C 87% 9.3 mph SSW15.0 kmh SSW 17.6 mph28.3 kmh 30.02 in1016.6 mb 0.03 in0.8 mm 0.00 in0.0 mm 0.08 in2.0 mm
03:50 PM 61.3°F16.3°C 57.7°F14.3°C 88% 8.1 mph SSW13.0 kmh SSW 13.1 mph21.1 kmh 30.02 in1016.6 mb 0.03 in0.8 mm 0.00 in0.0 mm 0.08 in2.0 mm
03:55 PM 61.3°F16.3°C 57.7°F14.3°C 88% 7.9 mph SSW12.7 kmh SSW 13.1 mph21.1 kmh 30.02 in1016.6 mb 0.03 in0.8 mm 0.00 in0.0 mm 0.08 in2.0 mm
04:00 PM 61.3°F16.3°C 57.7°F14.3°C 88% 10.0 mph SSW16.1 kmh SSW 16.7 mph26.9 kmh 30.02 in1016.6 mb 0.00 in0.0 mm 0.00 in0.0 mm 0.08 in2.0 mm
04:05 PM 61.3°F16.3°C 57.7°F14.3°C 88% 10.5 mph S16.9 kmh S 16.7 mph26.9 kmh 30.02 in1016.6 mb 0.00 in0.0 mm 0.00 in0.0 mm 0.08 in2.0 mm
04:10 PM 61.3°F16.3°C 58.0°F14.4°C 89% 9.3 mph SSW15.0 kmh SSW 11.6 mph18.7 kmh 30.02 in1016.6 mb 0.00 in0.0 mm 0.00 in0.0 mm 0.08 in2.0 mm
04:15 PM 61.3°F16.3°C 58.0°F14.4°C 89% 9.1 mph SW14.6 kmh SW 11.6 mph18.7 kmh 30.02 in1016.6 mb 0.00 in0.0 mm 0.00 in0.0 mm 0.08 in2.0 mm
04:20 PM 61.3°F16.3°C 58.0°F14.4°C 89% 9.2 mph SSW14.8 kmh SSW 16.7 mph26.9 kmh 30.02 in1016.6 mb 0.00 in0.0 mm 0.00 in0.0 mm 0.08 in2.0 mm
04:25 PM 61.3°F16.3°C 58.0°F14.4°C 89% 9.9 mph SSW15.9 kmh SSW 16.7 mph26.9 kmh 30.02 in1016.6 mb 0.00 in0.0 mm 0.00 in0.0 mm 0.08 in2.0 mm
04:30 PM 61.3°F16.3°C 58.0°F14.4°C 89% 7.9 mph SSW12.7 kmh SSW 11.3 mph18.2 kmh 30.02 in1016.6 mb 0.00 in0.0 mm 0.00 in0.0 mm 0.08 in2.0 mm
04:35 PM 61.3°F16.3°C 58.0°F14.4°C 89% 8.2 mph SW13.2 kmh SW 13.7 mph22.0 kmh 30.02 in1016.6 mb 0.00 in0.0 mm 0.00 in0.0 mm 0.08 in2.0 mm
04:40 PM 61.3°F16.3°C 58.0°F14.4°C 89% 8.8 mph SSW14.2 kmh SSW 14.0 mph22.5 kmh 30.02 in1016.6 mb 0.00 in0.0 mm 0.00 in0.0 mm 0.08 in2.0 mm
04:45 PM 61.3°F16.3°C 58.0°F14.4°C 89% 9.4 mph SSW15.1 kmh SSW 14.3 mph23.0 kmh 30.02 in1016.6 mb 0.00 in0.0 mm 0.00 in0.0 mm 0.08 in2.0 mm
04:50 PM 61.4°F16.3°C 57.8°F14.3°C 88% 8.6 mph SSW13.8 kmh SSW 14.3 mph23.0 kmh 30.02 in1016.6 mb 0.00 in0.0 mm 0.00 in0.0 mm 0.08 in2.0 mm
04:55 PM 61.4°F16.3°C 57.8°F14.3°C 88% 6.9 mph S11.1 kmh S 8.6 mph13.8 kmh 30.02 in1016.6 mb 0.00 in0.0 mm 0.00 in0.0 mm 0.08 in2.0 mm
05:00 PM 61.6°F16.4°C 58.0°F14.4°C 88% 6.9 mph S11.1 kmh S 11.6 mph18.7 kmh 30.02 in1016.6 mb 0.00 in0.0 mm 0.00 in0.0 mm 0.08 in2.0 mm
05:05 PM 61.6°F16.4°C 58.0°F14.4°C 88% 8.4 mph S13.5 kmh S 11.9 mph19.2 kmh 30.02 in1016.6 mb 0.00 in0.0 mm 0.00 in0.0 mm 0.08 in2.0 mm
05:10 PM 61.8°F16.6°C 58.2°F14.6°C 88% 7.7 mph S12.4 kmh S 11.9 mph19.2 kmh 30.02 in1016.6 mb 0.00 in0.0 mm 0.00 in0.0 mm 0.08 in2.0 mm
05:15 PM 61.8°F16.6°C 58.2°F14.6°C 88% 7.3 mph SSW11.7 kmh SSW 11.9 mph19.2 kmh 30.02 in1016.6 mb 0.00 in0.0 mm 0.00 in0.0 mm 0.08 in2.0 mm
05:20 PM 61.8°F16.6°C 58.2°F14.6°C 88% 7.6 mph SSW12.2 kmh SSW 11.9 mph19.2 kmh 30.02 in1016.6 mb 0.00 in0.0 mm 0.00 in0.0 mm 0.08 in2.0 mm
05:25 PM 62.0°F16.7°C 58.4°F14.7°C 88% 6.4 mph S10.3 kmh S 8.3 mph13.4 kmh 30.02 in1016.6 mb 0.00 in0.0 mm 0.00 in0.0 mm 0.08 in2.0 mm
05:30 PM 62.0°F16.7°C 58.1°F14.5°C 87% 6.6 mph SSW10.6 kmh SSW 8.3 mph13.4 kmh 30.02 in1016.6 mb 0.00 in0.0 mm 0.00 in0.0 mm 0.08 in2.0 mm
05:35 PM 62.2°F16.8°C 58.2°F14.6°C 87% 7.7 mph SSW12.4 kmh SSW 11.6 mph18.7 kmh 30.02 in1016.6 mb 0.00 in0.0 mm 0.00 in0.0 mm 0.08 in2.0 mm
05:40 PM 62.2°F16.8°C 58.2°F14.6°C 87% 8.6 mph SSW13.8 kmh SSW 11.6 mph18.7 kmh 30.02 in1016.6 mb 0.00 in0.0 mm 0.00 in0.0 mm 0.08 in2.0 mm
05:45 PM 62.2°F16.8°C 58.2°F14.6°C 87% 9.7 mph S15.6 kmh S 12.5 mph20.1 kmh 30.02 in1016.6 mb 0.00 in0.0 mm 0.00 in0.0 mm 0.08 in2.0 mm
05:50 PM 62.2°F16.8°C 57.9°F14.4°C 86% 10.2 mph S16.4 kmh S 13.7 mph22.0 kmh 30.02 in1016.6 mb 0.00 in0.0 mm 0.00 in0.0 mm 0.08 in2.0 mm
05:55 PM 62.2°F16.8°C 57.9°F14.4°C 86% 9.6 mph SSW15.4 kmh SSW 13.7 mph22.0 kmh 30.02 in1016.6 mb 0.00 in0.0 mm 0.00 in0.0 mm 0.08 in2.0 mm
06:00 PM 62.2°F16.8°C 57.9°F14.4°C 86% 8.8 mph SSW14.2 kmh SSW 10.7 mph17.2 kmh 30.02 in1016.6 mb 0.00 in0.0 mm 0.00 in0.0 mm 0.08 in2.0 mm
06:05 PM 62.2°F16.8°C 57.6°F14.2°C 85% 9.4 mph S15.1 kmh S 14.3 mph23.0 kmh 29.99 in1015.6 mb 0.00 in0.0 mm 0.00 in0.0 mm 0.08 in2.0 mm
06:10 PM 62.2°F16.8°C 57.6°F14.2°C 85% 9.8 mph S15.8 kmh S 14.3 mph23.0 kmh 29.99 in1015.6 mb 0.00 in0.0 mm 0.00 in0.0 mm 0.08 in2.0 mm
06:15 PM 62.2°F16.8°C 57.6°F14.2°C 85% 11.2 mph S18.0 kmh S 16.1 mph25.9 kmh 29.99 in1015.6 mb 0.00 in0.0 mm 0.00 in0.0 mm 0.08 in2.0 mm
06:20 PM 62.2°F16.8°C 57.3°F14.1°C 84% 11.1 mph S17.9 kmh S 17.6 mph28.3 kmh 29.99 in1015.6 mb 0.00 in0.0 mm 0.00 in0.0 mm 0.08 in2.0 mm
06:25 PM 62.0°F16.7°C 57.4°F14.1°C 85% 10.1 mph S16.3 kmh S 17.6 mph28.3 kmh 29.99 in1015.6 mb 0.00 in0.0 mm 0.00 in0.0 mm 0.08 in2.0 mm
06:30 PM 61.8°F16.6°C 57.2°F14.0°C 85% 9.1 mph S14.6 kmh S 11.3 mph18.2 kmh 29.99 in1015.6 mb 0.00 in0.0 mm 0.00 in0.0 mm 0.08 in2.0 mm
06:35 PM 61.6°F16.4°C 57.1°F13.9°C 85% 7.1 mph S11.4 kmh S 11.3 mph18.2 kmh 29.99 in1015.6 mb 0.05 in1.3 mm 0.60 in15.2 mm 0.13 in3.3 mm
06:40 PM 61.6°F16.4°C 57.1°F13.9°C 85% 5.9 mph S9.5 kmh S 9.5 mph15.3 kmh 29.99 in1015.6 mb 0.05 in1.3 mm 0.00 in0.0 mm 0.13 in3.3 mm
06:45 PM 61.4°F16.3°C 56.9°F13.8°C 85% 6.0 mph S9.7 kmh S 10.4 mph16.7 kmh 29.99 in1015.6 mb 0.05 in1.3 mm 0.00 in0.0 mm 0.13 in3.3 mm
06:50 PM 61.1°F16.2°C 56.8°F13.8°C 86% 6.6 mph S10.6 kmh S 10.4 mph16.7 kmh 29.99 in1015.6 mb 0.05 in1.3 mm 0.00 in0.0 mm 0.13 in3.3 mm
06:55 PM 61.1°F16.2°C 57.2°F14.0°C 87% 6.3 mph S10.1 kmh S 9.5 mph15.3 kmh 29.99 in1015.6 mb 0.05 in1.3 mm 0.00 in0.0 mm 0.13 in3.3 mm
07:00 PM 61.1°F16.2°C 56.8°F13.8°C 86% 6.8 mph S10.9 kmh S 13.1 mph21.1 kmh 29.99 in1015.6 mb 0.05 in1.3 mm 0.00 in0.0 mm 0.13 in3.3 mm
07:05 PM 61.1°F16.2°C 57.2°F14.0°C 87% 7.6 mph SSW12.2 kmh SSW 13.1 mph21.1 kmh 29.99 in1015.6 mb 0.05 in1.3 mm 0.00 in0.0 mm 0.13 in3.3 mm
07:10 PM 61.1°F16.2°C 57.2°F14.0°C 87% 6.9 mph SSW11.1 kmh SSW 9.8 mph15.8 kmh 29.99 in1015.6 mb 0.05 in1.3 mm 0.00 in0.0 mm 0.13 in3.3 mm
07:15 PM 61.1°F16.2°C 57.2°F14.0°C 87% 7.0 mph SSW11.3 kmh SSW 10.7 mph17.2 kmh 29.99 in1015.6 mb 0.05 in1.3 mm 0.00 in0.0 mm 0.13 in3.3 mm
07:20 PM 61.1°F16.2°C 57.2°F14.0°C 87% 7.6 mph S12.2 kmh S 11.3 mph18.2 kmh 29.99 in1015.6 mb 0.05 in1.3 mm 0.00 in0.0 mm 0.13 in3.3 mm
07:25 PM 61.3°F16.3°C 57.3°F14.1°C 87% 8.6 mph SSW13.8 kmh SSW 13.1 mph21.1 kmh 29.99 in1015.6 mb 0.05 in1.3 mm 0.00 in0.0 mm 0.13 in3.3 mm
07:30 PM 61.3°F16.3°C 57.3°F14.1°C 87% 8.3 mph SSW13.4 kmh SSW 13.1 mph21.1 kmh 29.99 in1015.6 mb 0.05 in1.3 mm 0.00 in0.0 mm 0.13 in3.3 mm
07:35 PM 61.3°F16.3°C 57.3°F14.1°C 87% 6.1 mph SSW9.8 kmh SSW 10.1 mph16.3 kmh 29.99 in1015.6 mb 0.00 in0.0 mm 0.00 in0.0 mm 0.13 in3.3 mm
07:40 PM 61.3°F16.3°C 57.3°F14.1°C 87% 6.5 mph SSW10.5 kmh SSW 10.7 mph17.2 kmh 29.99 in1015.6 mb 0.00 in0.0 mm 0.00 in0.0 mm 0.13 in3.3 mm
07:45 PM 61.3°F16.3°C 57.3°F14.1°C 87% 6.7 mph S10.8 kmh S 10.7 mph17.2 kmh 29.99 in1015.6 mb 0.00 in0.0 mm 0.00 in0.0 mm 0.13 in3.3 mm
07:50 PM 61.3°F16.3°C 57.3°F14.1°C 87% 7.6 mph S12.2 kmh S 13.1 mph21.1 kmh 29.99 in1015.6 mb 0.00 in0.0 mm 0.00 in0.0 mm 0.13 in3.3 mm
07:55 PM 61.3°F16.3°C 57.3°F14.1°C 87% 8.6 mph S13.8 kmh S 13.1 mph21.1 kmh 29.99 in1015.6 mb 0.00 in0.0 mm 0.00 in0.0 mm 0.13 in3.3 mm
08:00 PM 61.3°F16.3°C 57.3°F14.1°C 87% 8.9 mph SSW14.3 kmh SSW 12.8 mph20.6 kmh 29.99 in1015.6 mb 0.00 in0.0 mm 0.00 in0.0 mm 0.13 in3.3 mm
08:05 PM 61.1°F16.2°C 57.2°F14.0°C 87% 9.1 mph SSW14.6 kmh SSW 12.8 mph20.6 kmh 29.99 in1015.6 mb 0.00 in0.0 mm 0.00 in0.0 mm 0.13 in3.3 mm
08:10 PM 61.1°F16.2°C 57.2°F14.0°C 87% 7.7 mph SSW12.4 kmh SSW 11.3 mph18.2 kmh 29.99 in1015.6 mb 0.00 in0.0 mm 0.00 in0.0 mm 0.13 in3.3 mm
08:15 PM 61.1°F16.2°C 57.5°F14.2°C 88% 7.4 mph SSW11.9 kmh SSW 11.3 mph18.2 kmh 29.99 in1015.6 mb 0.00 in0.0 mm 0.00 in0.0 mm 0.13 in3.3 mm
08:20 PM 61.1°F16.2°C 57.5°F14.2°C 88% 6.5 mph SW10.5 kmh SW 11.3 mph18.2 kmh 29.99 in1015.6 mb 0.00 in0.0 mm 0.00 in0.0 mm 0.13 in3.3 mm
08:25 PM 61.1°F16.2°C 57.5°F14.2°C 88% 4.3 mph SSW6.9 kmh SSW 8.0 mph12.9 kmh 29.99 in1015.6 mb 0.00 in0.0 mm 0.00 in0.0 mm 0.13 in3.3 mm
08:30 PM 61.1°F16.2°C 57.5°F14.2°C 88% 2.9 mph S4.7 kmh S 5.7 mph9.2 kmh 29.99 in1015.6 mb 0.00 in0.0 mm 0.00 in0.0 mm 0.13 in3.3 mm
08:35 PM 61.1°F16.2°C 57.5°F14.2°C 88% 2.8 mph S4.5 kmh S 5.7 mph9.2 kmh 29.99 in1015.6 mb 0.00 in0.0 mm 0.00 in0.0 mm 0.13 in3.3 mm
08:40 PM 61.1°F16.2°C 57.5°F14.2°C 88% 4.3 mph SSW6.9 kmh SSW 5.4 mph8.7 kmh 29.99 in1015.6 mb 0.00 in0.0 mm 0.00 in0.0 mm 0.13 in3.3 mm
08:45 PM 61.1°F16.2°C 57.5°F14.2°C 88% 4.5 mph SSW7.2 kmh SSW 5.7 mph9.2 kmh 29.99 in1015.6 mb 0.00 in0.0 mm 0.00 in0.0 mm 0.13 in3.3 mm
08:50 PM 60.9°F16.1°C 57.3°F14.1°C 88% 4.7 mph SSW7.6 kmh SSW 6.5 mph10.5 kmh 29.99 in1015.6 mb 0.00 in0.0 mm 0.00 in0.0 mm 0.13 in3.3 mm
08:55 PM 60.9°F16.1°C 57.3°F14.1°C 88% 6.4 mph SSW10.3 kmh SSW 10.1 mph16.3 kmh 29.99 in1015.6 mb 0.00 in0.0 mm 0.00 in0.0 mm 0.13 in3.3 mm
09:00 PM 60.7°F15.9°C 57.1°F13.9°C 88% 7.1 mph SSW11.4 kmh SSW 10.1 mph16.3 kmh 29.99 in1015.6 mb 0.00 in0.0 mm 0.00 in0.0 mm 0.13 in3.3 mm
09:05 PM 60.5°F15.8°C 57.0°F13.9°C 88% 6.5 mph S10.5 kmh S 10.1 mph16.3 kmh 29.99 in1015.6 mb 0.00 in0.0 mm 0.00 in0.0 mm 0.13 in3.3 mm
09:10 PM 60.5°F15.8°C 57.0°F13.9°C 88% 6.2 mph SSW10.0 kmh SSW 10.1 mph16.3 kmh 29.96 in1014.6 mb 0.04 in1.0 mm 0.48 in12.2 mm 0.17 in4.3 mm
09:15 PM 60.3°F15.7°C 56.8°F13.8°C 88% 5.5 mph SW8.9 kmh SW 7.7 mph12.4 kmh 29.96 in1014.6 mb 0.04 in1.0 mm 0.00 in0.0 mm 0.17 in4.3 mm
09:20 PM 60.2°F15.7°C 56.9°F13.8°C 89% 7.1 mph SSW11.4 kmh SSW 11.3 mph18.2 kmh 29.96 in1014.6 mb 0.08 in2.0 mm 0.48 in12.2 mm 0.21 in5.3 mm
09:25 PM 60.2°F15.7°C 56.9°F13.8°C 89% 5.6 mph SSW9.0 kmh SSW 10.7 mph17.2 kmh 29.96 in1014.6 mb 0.08 in2.0 mm 0.00 in0.0 mm 0.21 in5.3 mm
09:30 PM 60.2°F15.7°C 56.9°F13.8°C 89% 7.2 mph SSW11.6 kmh SSW 11.3 mph18.2 kmh 29.96 in1014.6 mb 0.08 in2.0 mm 0.00 in0.0 mm 0.21 in5.3 mm
09:35 PM 60.2°F15.7°C 56.9°F13.8°C 89% 7.4 mph SSW11.9 kmh SSW 11.3 mph18.2 kmh 29.96 in1014.6 mb 0.08 in2.0 mm 0.00 in0.0 mm 0.21 in5.3 mm
09:40 PM 60.2°F15.7°C 56.9°F13.8°C 89% 7.3 mph S11.7 kmh S 11.6 mph18.7 kmh 29.96 in1014.6 mb 0.08 in2.0 mm 0.00 in0.0 mm 0.21 in5.3 mm
09:45 PM 60.2°F15.7°C 56.9°F13.8°C 89% 8.0 mph SSW12.9 kmh SSW 11.9 mph19.2 kmh 29.96 in1014.6 mb 0.12 in3.0 mm 0.48 in12.2 mm 0.25 in6.4 mm
09:50 PM 60.2°F15.7°C 57.2°F14.0°C 90% 7.6 mph SSW12.2 kmh SSW 11.9 mph19.2 kmh 29.93 in1013.5 mb 0.12 in3.0 mm 0.00 in0.0 mm 0.25 in6.4 mm
09:55 PM 60.2°F15.7°C 57.2°F14.0°C 90% 6.9 mph SSW11.1 kmh SSW 9.8 mph15.8 kmh 29.93 in1013.5 mb 0.16 in4.1 mm 0.48 in12.2 mm 0.29 in7.4 mm
10:00 PM 60.2°F15.7°C 57.2°F14.0°C 90% 7.6 mph SW12.2 kmh SW 11.6 mph18.7 kmh 29.93 in1013.5 mb 0.16 in4.1 mm 0.00 in0.0 mm 0.29 in7.4 mm
10:05 PM 60.2°F15.7°C 57.2°F14.0°C 90% 9.1 mph SW14.6 kmh SW 11.6 mph18.7 kmh 29.93 in1013.5 mb 0.20 in5.1 mm 0.48 in12.2 mm 0.33 in8.4 mm
10:10 PM 60.2°F15.7°C 57.2°F14.0°C 90% 8.3 mph SSW13.4 kmh SSW 11.6 mph18.7 kmh 29.93 in1013.5 mb 0.21 in5.3 mm 0.12 in3.0 mm 0.38 in9.7 mm
10:15 PM 60.2°F15.7°C 57.2°F14.0°C 90% 7.8 mph S12.6 kmh S 10.1 mph16.3 kmh 29.93 in1013.5 mb 0.21 in5.3 mm 0.00 in0.0 mm 0.38 in9.7 mm
10:20 PM 60.2°F15.7°C 57.2°F14.0°C 90% 8.6 mph SSW13.8 kmh SSW 11.3 mph18.2 kmh 29.93 in1013.5 mb 0.25 in6.4 mm 0.48 in12.2 mm 0.42 in10.7 mm
10:25 PM 60.2°F15.7°C 57.5°F14.2°C 91% 9.2 mph SW14.8 kmh SW 11.3 mph18.2 kmh 29.93 in1013.5 mb 0.21 in5.3 mm 0.00 in0.0 mm 0.42 in10.7 mm
10:30 PM 60.2°F15.7°C 57.5°F14.2°C 91% 9.2 mph SSW14.8 kmh SSW 14.9 mph24.0 kmh 29.93 in1013.5 mb 0.21 in5.3 mm 0.00 in0.0 mm 0.42 in10.7 mm
10:35 PM 60.2°F15.7°C 57.5°F14.2°C 91% 9.0 mph SSW14.5 kmh SSW 14.9 mph24.0 kmh 29.93 in1013.5 mb 0.21 in5.3 mm 0.00 in0.0 mm 0.42 in10.7 mm
10:40 PM 60.2°F15.7°C 57.5°F14.2°C 91% 8.2 mph S13.2 kmh S 13.1 mph21.1 kmh 29.93 in1013.5 mb 0.25 in6.4 mm 0.48 in12.2 mm 0.46 in11.7 mm
10:45 PM 60.2°F15.7°C 57.5°F14.2°C 91% 8.3 mph S13.4 kmh S 13.1 mph21.1 kmh 29.93 in1013.5 mb 0.21 in5.3 mm 0.00 in0.0 mm 0.46 in11.7 mm
10:50 PM 60.2°F15.7°C 57.5°F14.2°C 91% 9.0 mph SSW14.5 kmh SSW 13.1 mph21.1 kmh 29.93 in1013.5 mb 0.21 in5.3 mm 0.00 in0.0 mm 0.46 in11.7 mm
10:55 PM 60.2°F15.7°C 57.5°F14.2°C 91% 9.6 mph SSW15.4 kmh SSW 12.8 mph20.6 kmh 29.93 in1013.5 mb 0.21 in5.3 mm 0.00 in0.0 mm 0.50 in12.7 mm
11:00 PM 60.2°F15.7°C 57.5°F14.2°C 91% 8.8 mph S14.2 kmh S 12.8 mph20.6 kmh 29.93 in1013.5 mb 0.21 in5.3 mm 0.00 in0.0 mm 0.42 in10.7 mm
11:05 PM 60.3°F15.7°C 57.7°F14.3°C 91% 9.0 mph S14.5 kmh S 11.6 mph18.7 kmh 29.90 in1012.5 mb 0.17 in4.3 mm 0.00 in0.0 mm 0.42 in10.7 mm
11:10 PM 60.3°F15.7°C 57.7°F14.3°C 91% 10.2 mph SSW16.4 kmh SSW 14.6 mph23.5 kmh 29.90 in1012.5 mb 0.16 in4.1 mm 0.00 in0.0 mm 0.04 in1.0 mm
11:15 PM 60.3°F15.7°C 57.7°F14.3°C 91% 10.7 mph S17.2 kmh S 14.6 mph23.5 kmh 29.90 in1012.5 mb 0.16 in4.1 mm 0.00 in0.0 mm 0.04 in1.0 mm
11:20 PM 60.3°F15.7°C 57.7°F14.3°C 91% 9.5 mph S15.3 kmh S 11.3 mph18.2 kmh 29.90 in1012.5 mb 0.16 in4.1 mm 0.00 in0.0 mm 0.08 in2.0 mm
11:25 PM 60.3°F15.7°C 57.7°F14.3°C 91% 8.9 mph SW14.3 kmh SW 11.3 mph18.2 kmh 29.90 in1012.5 mb 0.20 in5.1 mm 0.48 in12.2 mm 0.12 in3.0 mm
11:30 PM 60.3°F15.7°C 57.7°F14.3°C 91% 8.3 mph SW13.4 kmh SW 10.4 mph16.7 kmh 29.90 in1012.5 mb 0.20 in5.1 mm 0.00 in0.0 mm 0.12 in3.0 mm
11:35 PM 60.3°F15.7°C 57.7°F14.3°C 91% 7.2 mph S11.6 kmh S 8.3 mph13.4 kmh 29.90 in1012.5 mb 0.20 in5.1 mm 0.00 in0.0 mm 0.16 in4.1 mm
11:40 PM 60.3°F15.7°C 58.0°F14.4°C 92% 9.0 mph S14.5 kmh S 13.4 mph21.6 kmh 29.90 in1012.5 mb 0.20 in5.1 mm 0.00 in0.0 mm 0.16 in4.1 mm
11:45 PM 60.3°F15.7°C 58.0°F14.4°C 92% 8.7 mph S14.0 kmh S 13.4 mph21.6 kmh 29.90 in1012.5 mb 0.20 in5.1 mm 0.00 in0.0 mm 0.16 in4.1 mm
11:50 PM 60.5°F15.8°C 58.2°F14.6°C 92% 6.5 mph S10.5 kmh S 10.4 mph16.7 kmh 29.90 in1012.5 mb 0.25 in6.4 mm 0.60 in15.2 mm 0.21 in5.3 mm
11:55 PM 60.5°F15.8°C 58.2°F14.6°C 92% 8.4 mph SSW13.5 kmh SSW 14.0 mph22.5 kmh 29.90 in1012.5 mb 0.21 in5.3 mm 0.00 in0.0 mm 0.21 in5.3 mm